Time;durP1;ratioP1;P1;durP2;ratioP2;P2;SDS_P1;SDS_P2;PMS_P1;PMS_P2;Temp;Humidity;BMP_temperature;BMP_pressure;BME280_temperature;BME280_humidity;BME280_pressure;Samples;Min_cycle;Max_cycle;Signal;HPM_P1;HPM_P2
2023/08/20 00:00:07;;;;;;;7.83;7.03;;;;;;;25.32;nan;99732.59;5050195;28;20688;-77
2023/08/20 00:02:39;;;;;;;13.03;7.67;;;;;;;25.29;nan;99736.50;5051985;28;20645;-77
2023/08/20 00:05:06;;;;;;;7.07;6.43;;;;;;;25.25;nan;99729.00;5045947;28;20470;-77
2023/08/20 00:07:31;;;;;;;9.33;8.53;;;;;;;25.19;nan;99727.91;5051072;28;20826;-79
2023/08/20 00:09:57;;;;;;;10.13;7.50;;;;;;;25.09;nan;99733.56;5048915;28;20454;-77
2023/08/20 00:12:23;;;;;;;8.80;7.80;;;;;;;25.00;nan;99736.53;5053348;28;20197;-77
2023/08/20 00:14:58;;;;;;;8.00;7.10;;;;;;;24.92;nan;99735.66;5051438;28;20196;-78
2023/08/20 00:17:27;;;;;;;8.07;7.27;;;;;;;24.90;nan;99731.47;5052539;28;20467;-77
2023/08/20 00:19:55;;;;;;;7.60;6.90;;;;;;;24.89;nan;99727.09;5034565;28;20461;-77
2023/08/20 00:22:25;;;;;;;8.33;7.60;;;;;;;24.88;nan;99734.34;5052456;28;21314;-78
2023/08/20 00:24:52;;;;;;;8.20;7.40;;;;;;;24.86;nan;99730.19;5049069;28;20467;-78
2023/08/20 00:27:18;;;;;;;7.13;6.43;;;;;;;24.80;nan;99723.69;5050381;28;21044;-77
2023/08/20 00:29:43;;;;;;;8.03;7.20;;;;;;;24.77;nan;99731.31;5053830;28;20451;-79
2023/08/20 00:32:09;;;;;;;8.03;7.33;;;;;;;24.77;nan;99731.31;5051369;28;20282;-77
2023/08/20 00:34:34;;;;;;;7.03;6.37;;;;;;;24.79;nan;99721.19;5048146;28;20228;-79
2023/08/20 00:37:01;;;;;;;8.23;7.43;;;;;;;24.84;nan;99724.16;5032848;28;20520;-79
2023/08/20 00:39:26;;;;;;;8.63;7.83;;;;;;;24.84;nan;99727.66;5064245;28;20221;-78
2023/08/20 00:41:53;;;;;;;7.63;6.73;;;;;;;24.80;nan;99729.06;5053110;28;20558;-79
2023/08/20 00:44:18;;;;;;;7.70;7.00;;;;;;;24.74;nan;99729.81;5033096;28;20251;-78
2023/08/20 00:46:43;;;;;;;7.83;7.07;;;;;;;24.69;nan;99718.81;5048025;28;20574;-77
2023/08/20 00:49:12;;;;;;;7.80;7.00;;;;;;;24.63;nan;99724.94;5029834;28;20617;-77
2023/08/20 00:51:38;;;;;;;8.17;6.50;;;;;;;24.59;nan;99726.31;5052539;28;20207;-77
2023/08/20 00:54:06;;;;;;;7.50;6.70;;;;;;;24.49;nan;99724.75;5032515;28;20455;-77
2023/08/20 00:56:32;;;;;;;9.60;6.90;;;;;;;24.41;nan;99727.50;5048608;28;20471;-79
2023/08/20 00:58:58;;;;;;;8.73;6.67;;;;;;;24.38;nan;99719.78;5028050;28;20538;-78
2023/08/20 01:01:24;;;;;;;12.90;7.50;;;;;;;24.37;nan;99723.50;5041862;28;20201;-79
2023/08/20 01:03:50;;;;;;;11.30;8.90;;;;;;;24.31;nan;99736.81;5049950;28;20455;-79
2023/08/20 01:06:23;;;;;;;9.13;6.97;;;;;;;24.26;nan;99738.19;5027133;28;20667;-78
2023/08/20 01:08:57;;;;;;;7.97;7.17;;;;;;;24.20;nan;99732.75;5030407;28;20208;-80
2023/08/20 01:11:29;;;;;;;7.53;6.57;;;;;;;24.16;nan;99734.09;5030960;28;20489;-79
2023/08/20 01:13:55;;;;;;;8.57;7.00;;;;;;;24.14;nan;99736.13;5051162;28;20946;-77
2023/08/20 01:16:20;;;;;;;8.40;7.60;;;;;;;24.14;nan;99741.50;5049105;28;20505;-79
2023/08/20 01:18:48;;;;;;;7.13;6.40;;;;;;;24.13;nan;99740.66;5052714;28;20565;-79
2023/08/20 01:21:30;;;;;;;12.00;7.43;;;;;;;24.13;nan;99745.22;5031126;28;20242;-77
2023/08/20 01:23:58;;;;;;;8.30;6.93;;;;;;;24.10;nan;99756.31;5052479;28;21007;-77
2023/08/20 01:26:35;;;;;;;8.60;6.70;;;;;;;24.02;nan;99752.66;5023690;28;20571;-79
2023/08/20 01:29:01;;;;;;;7.10;6.40;;;;;;;23.91;nan;99752.28;5051686;28;20581;-77
2023/08/20 01:31:28;;;;;;;8.10;6.93;;;;;;;23.82;nan;99752.34;5028300;28;20718;-79
2023/08/20 01:33:53;;;;;;;8.10;7.30;;;;;;;23.78;nan;99764.44;5050568;28;20855;-79
2023/08/20 01:36:20;;;;;;;10.57;7.40;;;;;;;23.79;nan;99774.16;5029083;28;20465;-77
2023/08/20 01:38:45;;;;;;;8.27;6.10;;;;;;;23.78;nan;99771.66;5048047;28;20790;-78
2023/08/20 01:41:11;;;;;;;7.47;6.60;;;;;;;23.73;nan;99768.66;5049492;28;20204;-77
2023/08/20 01:43:36;;;;;;;7.57;6.87;;;;;;;23.66;nan;99754.28;5050025;28;20220;-77
2023/08/20 01:46:02;;;;;;;6.87;6.20;;;;;;;23.59;nan;99765.72;5048239;28;20216;-79
2023/08/20 01:48:27;;;;;;;9.10;8.20;;;;;;;23.57;nan;99778.47;5051581;28;20817;-77
2023/08/20 01:50:52;;;;;;;8.27;7.57;;;;;;;23.59;nan;99784.47;5031225;28;20977;-77
2023/08/20 01:53:18;;;;;;;8.30;7.50;;;;;;;23.58;nan;99780.16;5049074;28;20197;-77
2023/08/20 01:55:43;;;;;;;13.60;7.83;;;;;;;23.54;nan;99784.19;5050098;28;20759;-77
2023/08/20 01:58:09;;;;;;;9.00;8.20;;;;;;;23.49;nan;99786.53;5033110;28;20211;-77
2023/08/20 02:00:34;;;;;;;8.73;7.93;;;;;;;23.36;nan;99789.84;5030987;28;20383;-77
2023/08/20 02:03:00;;;;;;;8.03;7.03;;;;;;;23.25;nan;99790.22;5036923;28;20200;-76
2023/08/20 02:05:26;;;;;;;9.03;7.70;;;;;;;23.16;nan;99788.56;5034125;28;20765;-79
2023/08/20 02:07:51;;;;;;;10.33;7.77;;;;;;;23.09;nan;99796.50;5047365;28;20448;-77
2023/08/20 02:10:17;;;;;;;8.30;7.50;;;;;;;23.00;nan;99791.34;5051688;28;20200;-77
2023/08/20 02:12:42;;;;;;;8.27;7.13;;;;;;;22.94;nan;99800.88;5028052;28;20201;-76
2023/08/20 02:15:08;;;;;;;10.47;7.77;;;;;;;22.95;nan;99797.16;5049084;28;20259;-77
2023/08/20 02:17:35;;;;;;;9.60;8.60;;;;;;;22.99;nan;99790.50;5048279;28;20483;-79
2023/08/20 02:20:02;;;;;;;8.80;7.50;;;;;;;23.03;nan;99793.66;5050833;28;21191;-77
2023/08/20 02:22:29;;;;;;;8.57;7.73;;;;;;;23.00;nan;99786.78;5052092;28;20459;-78
2023/08/20 02:24:54;;;;;;;7.50;6.30;;;;;;;23.01;nan;99787.63;5055170;28;20477;-77
2023/08/20 02:27:20;;;;;;;8.73;6.80;;;;;;;23.02;nan;99782.09;5053877;28;20456;-79
2023/08/20 02:29:45;;;;;;;8.40;7.60;;;;;;;23.03;nan;99769.53;5053466;28;20292;-78
2023/08/20 02:32:14;;;;;;;8.23;7.43;;;;;;;23.05;nan;99768.38;5045366;28;20214;-77
2023/08/20 02:34:39;;;;;;;7.90;7.03;;;;;;;23.03;nan;99762.34;5027846;28;20414;-79
2023/08/20 02:37:05;;;;;;;10.60;7.63;;;;;;;22.97;nan;99766.53;5031408;28;20605;-79
2023/08/20 02:39:31;;;;;;;10.83;7.10;;;;;;;22.90;nan;99765.56;5044248;28;20209;-77
2023/08/20 02:41:56;;;;;;;8.70;7.83;;;;;;;22.83;nan;99761.06;5043098;28;20284;-77
2023/08/20 02:44:22;;;;;;;9.67;7.40;;;;;;;22.75;nan;99759.25;5048464;28;20922;-77
2023/08/20 02:46:47;;;;;;;9.73;8.80;;;;;;;22.78;nan;99758.06;5032739;28;20215;-76
2023/08/20 02:49:14;;;;;;;7.53;6.73;;;;;;;22.83;nan;99755.72;5054333;28;20189;-79
2023/08/20 02:51:43;;;;;;;10.10;7.73;;;;;;;22.89;nan;99761.19;5036028;28;20296;-77
2023/08/20 02:54:08;;;;;;;8.00;7.17;;;;;;;22.97;nan;99760.38;5053644;28;20475;-79
2023/08/20 02:56:34;;;;;;;9.07;7.17;;;;;;;23.02;nan;99755.31;5032221;28;20592;-79
2023/08/20 02:58:59;;;;;;;8.33;7.50;;;;;;;23.04;nan;99765.88;5006919;28;20209;-76
2023/08/20 03:01:26;;;;;;;8.70;7.50;;;;;;;22.98;nan;99764.72;4993540;28;20549;-76
2023/08/20 03:03:53;;;;;;;8.83;6.87;;;;;;;22.94;nan;99755.31;4991935;28;20218;-76
2023/08/20 03:06:18;;;;;;;8.93;7.30;;;;;;;22.92;nan;99757.34;4995448;28;20841;-77
2023/08/20 03:08:44;;;;;;;9.33;7.50;;;;;;;22.90;nan;99759.34;4992165;28;20960;-78
2023/08/20 03:11:09;;;;;;;8.80;7.33;;;;;;;22.81;nan;99757.72;4994230;28;20554;-77
2023/08/20 03:13:35;;;;;;;7.50;6.63;;;;;;;22.68;nan;99758.25;5016683;28;20199;-76
2023/08/20 03:16:01;;;;;;;7.93;7.00;;;;;;;22.58;nan;99752.28;4988356;28;20206;-78
2023/08/20 03:18:26;;;;;;;7.40;6.60;;;;;;;22.56;nan;99747.09;4983577;28;20317;-77
2023/08/20 03:20:55;;;;;;;7.43;6.73;;;;;;;22.58;nan;99738.91;5014303;28;20225;-78
2023/08/20 03:23:24;;;;;;;9.43;7.40;;;;;;;22.61;nan;99742.06;5017121;28;20513;-79
2023/08/20 03:25:50;;;;;;;8.00;7.30;;;;;;;22.65;nan;99734.50;5016228;28;20453;-76
2023/08/20 03:28:18;;;;;;;8.20;7.00;;;;;;;22.65;nan;99737.19;4991791;28;20560;-78
2023/08/20 03:30:47;;;;;;;10.50;8.37;;;;;;;22.59;nan;99721.81;5015289;28;20914;-76
2023/08/20 03:33:16;;;;;;;11.00;7.97;;;;;;;22.52;nan;99724.34;4991449;28;20447;-78
2023/08/20 03:35:42;;;;;;;8.80;7.57;;;;;;;22.45;nan;99729.56;5010116;28;21045;-79
2023/08/20 03:38:09;;;;;;;8.40;7.40;;;;;;;22.41;nan;99724.69;5010776;28;20457;-77
2023/08/20 03:40:34;;;;;;;9.00;8.17;;;;;;;22.39;nan;99722.22;5011416;28;20452;-79
2023/08/20 03:43:05;;;;;;;16.73;8.40;;;;;;;22.45;nan;99726.03;5014223;28;20198;-76
2023/08/20 03:45:31;;;;;;;9.50;8.53;;;;;;;22.49;nan;99724.69;5006674;28;20884;-76
2023/08/20 03:47:56;;;;;;;10.80;8.13;;;;;;;22.52;nan;99735.03;4992677;28;20464;-79
2023/08/20 03:50:22;;;;;;;8.93;8.03;;;;;;;22.52;nan;99740.38;5004920;28;20202;-76
2023/08/20 03:52:47;;;;;;;8.23;6.77;;;;;;;22.45;nan;99748.28;5000853;28;20700;-78
2023/08/20 03:55:13;;;;;;;10.03;8.03;;;;;;;22.41;nan;99754.16;5007254;28;20255;-78
2023/08/20 03:57:38;;;;;;;9.97;7.40;;;;;;;22.34;nan;99754.00;5023211;28;20318;-79
2023/08/20 04:00:05;;;;;;;9.83;6.53;;;;;;;22.27;nan;99758.34;5003609;28;20225;-77
2023/08/20 04:02:40;;;;;;;10.07;7.80;;;;;;;22.28;nan;99760.03;5024858;28;20208;-79
2023/08/20 04:05:06;;;;;;;8.40;7.60;;;;;;;22.29;nan;99756.34;5021687;28;20472;-77
2023/08/20 04:07:31;;;;;;;9.57;7.80;;;;;;;22.33;nan;99746.13;5023729;28;20201;-76
2023/08/20 04:09:57;;;;;;;9.50;7.13;;;;;;;22.37;nan;99742.13;5010475;28;20257;-80
2023/08/20 04:12:22;;;;;;;9.13;6.93;;;;;;;22.39;nan;99746.31;5024926;28;20208;-80
2023/08/20 04:14:47;;;;;;;9.23;7.20;;;;;;;22.45;nan;99759.00;5025774;28;20213;-78
2023/08/20 04:17:13;;;;;;;9.97;8.10;;;;;;;22.46;nan;99763.34;5026104;28;20588;-80
2023/08/20 04:19:38;;;;;;;9.10;7.50;;;;;;;22.45;nan;99758.16;5024919;28;21299;-78
2023/08/20 04:22:04;;;;;;;7.63;6.93;;;;;;;22.46;nan;99767.84;5021506;28;20178;-77
2023/08/20 04:24:33;;;;;;;8.50;7.60;;;;;;;22.47;nan;99777.56;5020306;28;20205;-79
2023/08/20 04:26:59;;;;;;;9.03;6.90;;;;;;;22.45;nan;99777.72;5007651;28;20855;-79
2023/08/20 04:29:27;;;;;;;12.53;8.43;;;;;;;22.46;nan;99773.22;5008746;28;20538;-77
2023/08/20 04:31:52;;;;;;;7.90;7.10;;;;;;;22.50;nan;99779.91;5006791;28;20451;-79
2023/08/20 04:34:18;;;;;;;9.90;7.80;;;;;;;22.53;nan;99782.25;5004623;28;20454;-79
2023/08/20 04:36:47;;;;;;;8.50;7.70;;;;;;;22.50;nan;99780.72;5005835;28;20185;-76
2023/08/20 04:39:13;;;;;;;8.80;7.90;;;;;;;22.52;nan;99785.91;5008379;28;21129;-79
2023/08/20 04:41:43;;;;;;;9.30;8.07;;;;;;;22.54;nan;99784.72;5004549;28;20317;-77
2023/08/20 04:44:13;;;;;;;9.10;7.10;;;;;;;22.55;nan;99785.59;5021352;28;21199;-77
2023/08/20 04:46:39;;;;;;;7.90;7.20;;;;;;;22.54;nan;99786.56;5005317;28;20434;-78
2023/08/20 04:49:04;;;;;;;8.53;7.83;;;;;;;22.50;nan;99783.41;5000710;28;20190;-78
2023/08/20 04:51:30;;;;;;;8.47;7.57;;;;;;;22.50;nan;99787.94;5004851;28;20220;-77
2023/08/20 04:53:55;;;;;;;7.70;6.97;;;;;;;22.52;nan;99789.44;5004387;28;20201;-78
2023/08/20 04:56:21;;;;;;;9.40;7.97;;;;;;;22.54;nan;99786.56;5023672;28;20237;-77
2023/08/20 04:58:46;;;;;;;12.13;7.80;;;;;;;22.56;nan;99789.09;5023983;28;20197;-79
2023/08/20 05:01:19;;;;;;;8.90;7.70;;;;;;;22.58;nan;99789.75;5005705;28;20255;-77
2023/08/20 05:03:44;;;;;;;8.17;7.37;;;;;;;22.62;nan;99788.41;5021442;28;20475;-78
2023/08/20 05:06:09;;;;;;;8.52;7.82;;;;;;;22.65;nan;99799.59;5005175;28;20435;-78
2023/08/20 05:08:35;;;;;;;8.43;7.63;;;;;;;22.70;nan;99799.91;5019400;28;20220;-76
2023/08/20 05:11:01;;;;;;;11.20;7.83;;;;;;;22.77;nan;99810.81;5001839;28;20238;-78
2023/08/20 05:13:26;;;;;;;9.20;6.80;;;;;;;22.83;nan;99806.59;5017836;28;20250;-79
2023/08/20 05:15:52;;;;;;;7.50;6.70;;;;;;;22.88;nan;99815.78;5004924;28;20210;-76
2023/08/20 05:18:17;;;;;;;8.57;7.13;;;;;;;22.94;nan;99817.75;5022873;28;20226;-78
2023/08/20 05:20:43;;;;;;;9.03;7.13;;;;;;;22.99;nan;99814.63;5023375;28;20240;-77
2023/08/20 05:23:08;;;;;;;10.67;7.80;;;;;;;23.02;nan;99811.59;5024174;28;20616;-78
2023/08/20 05:25:33;;;;;;;10.03;6.60;;;;;;;23.05;nan;99813.91;5024282;28;20244;-78
2023/08/20 05:28:01;;;;;;;8.07;7.37;;;;;;;23.10;nan;99824.94;5006514;28;20194;-78
2023/08/20 05:30:26;;;;;;;8.63;7.13;;;;;;;23.15;nan;99827.94;5004810;28;20198;-77
2023/08/20 05:32:52;;;;;;;9.30;7.03;;;;;;;23.19;nan;99825.75;5025045;28;20837;-78
2023/08/20 05:35:17;;;;;;;8.47;7.67;;;;;;;23.18;nan;99830.28;5020847;28;20478;-77
2023/08/20 05:37:43;;;;;;;8.17;7.30;;;;;;;23.16;nan;99826.94;5009223;28;20248;-78
2023/08/20 05:40:10;;;;;;;8.57;7.23;;;;;;;23.14;nan;99830.78;5008044;28;20444;-79
2023/08/20 05:42:44;;;;;;;8.23;7.53;;;;;;;23.13;nan;99829.94;5008804;28;20220;-76
2023/08/20 05:45:10;;;;;;;11.03;8.80;;;;;;;23.10;nan;99834.84;5025002;28;20494;-79
2023/08/20 05:47:36;;;;;;;8.57;6.63;;;;;;;23.13;nan;99826.44;5006471;28;21004;-77
2023/08/20 05:50:02;;;;;;;10.50;6.80;;;;;;;23.18;nan;99827.59;4990432;28;20229;-77
2023/08/20 05:52:27;;;;;;;9.33;7.33;;;;;;;23.46;nan;99834.34;5008232;28;20424;-77
2023/08/20 05:54:53;;;;;;;8.67;6.87;;;;;;;23.72;nan;99836.75;5006982;28;20252;-78
2023/08/20 05:57:21;;;;;;;9.10;7.37;;;;;;;24.00;nan;99837.03;5007639;28;20572;-80
2023/08/20 05:59:46;;;;;;;8.73;7.83;;;;;;;24.33;nan;99837.63;5028053;28;20290;-80
2023/08/20 06:02:17;;;;;;;9.80;7.83;;;;;;;24.63;nan;99840.41;5008518;28;20515;-80
2023/08/20 06:04:43;;;;;;;9.05;8.15;;;;;;;24.82;nan;99837.19;5025578;28;20471;-78
2023/08/20 06:07:09;;;;;;;9.82;8.93;;;;;;;24.92;nan;99839.59;5022506;28;20569;-78
2023/08/20 06:09:34;;;;;;;10.73;7.47;;;;;;;24.95;nan;99840.06;5027461;28;20297;-79
2023/08/20 06:12:00;;;;;;;9.73;7.47;;;;;;;25.05;nan;99837.09;5024717;28;20201;-79
2023/08/20 06:14:25;;;;;;;13.93;8.07;;;;;;;25.42;nan;99839.88;5025858;28;20297;-78
2023/08/20 06:16:51;;;;;;;8.50;7.57;;;;;;;25.97;nan;99833.06;5006987;28;20202;-77
2023/08/20 06:19:17;;;;;;;10.13;7.23;;;;;;;26.63;nan;99833.66;5019735;28;20197;-79
2023/08/20 06:21:43;;;;;;;7.77;6.53;;;;;;;27.35;nan;99832.44;5010268;28;20419;-78
2023/08/20 06:24:11;;;;;;;6.90;6.20;;;;;;;28.04;nan;99832.44;5026692;28;20482;-77
2023/08/20 06:26:37;;;;;;;8.27;7.10;;;;;;;28.66;nan;99831.19;5049183;23;20321;-75
2023/08/20 06:29:02;;;;;;;8.30;7.43;;;;;;;29.29;nan;99836.03;5048195;28;20871;-75
2023/08/20 06:31:28;;;;;;;7.87;7.17;;;;;;;29.83;nan;99837.47;5060525;28;20250;-75
2023/08/20 06:33:53;;;;;;;12.73;6.87;;;;;;;30.28;nan;99836.56;5071744;28;20568;-75
2023/08/20 06:36:19;;;;;;;8.80;7.90;;;;;;;30.71;nan;99843.91;5072952;28;20488;-75
2023/08/20 06:38:44;;;;;;;9.17;7.97;;;;;;;31.02;nan;99842.97;5055661;28;20851;-76
2023/08/20 06:41:09;;;;;;;9.03;7.50;;;;;;;31.28;nan;99839.13;5069540;28;20204;-75
2023/08/20 06:43:35;;;;;;;9.17;8.07;;;;;;;31.41;nan;99836.28;5073326;28;20904;-75
2023/08/20 06:46:00;;;;;;;8.80;7.90;;;;;;;31.47;nan;99838.06;5073141;28;20219;-76
2023/08/20 06:48:26;;;;;;;13.83;8.17;;;;;;;31.55;nan;99836.13;5075326;28;20266;-75
2023/08/20 06:50:52;;;;;;;10.47;8.47;;;;;;;31.42;nan;99837.09;5072782;28;20684;-75
2023/08/20 06:53:17;;;;;;;10.03;8.17;;;;;;;31.45;nan;99848.31;5074611;28;20520;-75
2023/08/20 06:55:42;;;;;;;10.80;8.87;;;;;;;31.48;nan;99842.44;5073669;28;20204;-76
2023/08/20 06:58:09;;;;;;;7.50;6.80;;;;;;;31.39;nan;99851.13;5073918;28;20188;-76
2023/08/20 07:00:34;;;;;;;12.63;8.40;;;;;;;31.12;nan;99856.84;5074112;28;20539;-76
2023/08/20 07:03:00;;;;;;;10.70;9.20;;;;;;;30.76;nan;99865.72;5074052;28;20462;-75
2023/08/20 07:05:34;;;;;;;8.80;7.90;;;;;;;30.32;nan;99851.31;5073648;28;20186;-76
2023/08/20 07:08:01;;;;;;;10.63;8.73;;;;;;;29.90;nan;99859.94;5057452;28;20252;-75
2023/08/20 07:10:27;;;;;;;11.00;9.20;;;;;;;29.58;nan;99856.31;5073444;28;20461;-76
2023/08/20 07:12:53;;;;;;;10.27;9.37;;;;;;;29.29;nan;99860.41;5073361;28;20644;-75
2023/08/20 07:15:18;;;;;;;12.43;9.77;;;;;;;29.26;nan;99864.38;5073628;28;20192;-75
2023/08/20 07:17:44;;;;;;;10.57;9.67;;;;;;;29.45;nan;99865.31;5073303;28;20560;-75
2023/08/20 07:20:09;;;;;;;10.30;9.40;;;;;;;29.73;nan;99864.19;5073166;28;20192;-75
2023/08/20 07:22:35;;;;;;;10.93;9.60;;;;;;;29.85;nan;99877.88;5070219;28;20533;-75
2023/08/20 07:25:00;;;;;;;10.00;9.10;;;;;;;30.07;nan;99864.81;5075284;28;20787;-76
2023/08/20 07:27:32;;;;;;;11.33;9.00;;;;;;;30.38;nan;99867.56;5075044;28;20228;-75
2023/08/20 07:29:58;;;;;;;10.00;9.00;;;;;;;30.77;nan;99870.13;5075127;28;20200;-75
2023/08/20 07:32:24;;;;;;;8.37;7.57;;;;;;;31.22;nan;99859.88;5063314;28;20470;-76
2023/08/20 07:34:50;;;;;;;8.57;7.67;;;;;;;31.77;nan;99864.41;5043100;28;20451;-76
2023/08/20 07:37:15;;;;;;;12.50;8.53;;;;;;;32.13;nan;99857.22;5067837;28;20212;-76
2023/08/20 07:39:41;;;;;;;8.60;7.90;;;;;;;32.20;nan;99868.81;5068134;28;20237;-76
2023/08/20 07:42:06;;;;;;;9.90;8.87;;;;;;;32.15;nan;99858.66;5072056;28;20200;-76
2023/08/20 07:44:32;;;;;;;9.17;8.27;;;;;;;31.79;nan;99864.19;5073074;28;20212;-74
2023/08/20 07:46:57;;;;;;;9.90;8.87;;;;;;;31.31;nan;99866.63;5070919;28;20290;-74
2023/08/20 07:49:23;;;;;;;9.60;8.70;;;;;;;31.06;nan;99871.31;5071184;28;20261;-75
2023/08/20 07:51:49;;;;;;;9.60;8.70;;;;;;;31.02;nan;99872.81;5072989;28;20241;-76
2023/08/20 07:54:15;;;;;;;9.33;8.30;;;;;;;31.17;nan;99876.00;5074296;28;20675;-75
2023/08/20 07:56:42;;;;;;;10.07;7.93;;;;;;;31.38;nan;99869.31;5071118;28;20478;-75
2023/08/20 07:59:07;;;;;;;9.30;8.47;;;;;;;31.53;nan;99872.44;5069056;28;20837;-76
2023/08/20 08:01:32;;;;;;;9.53;8.53;;;;;;;31.82;nan;99866.44;5071523;28;20196;-76
2023/08/20 08:03:58;;;;;;;9.67;8.77;;;;;;;32.38;nan;99868.75;5071204;28;20239;-76
2023/08/20 08:06:24;;;;;;;9.93;9.10;;;;;;;33.04;nan;99861.34;5072071;28;20432;-76
2023/08/20 08:08:49;;;;;;;8.80;8.00;;;;;;;33.50;nan;99861.47;5071530;28;20710;-75
2023/08/20 08:11:14;;;;;;;8.93;8.10;;;;;;;33.78;nan;99862.56;5068381;28;20216;-76
2023/08/20 08:13:40;;;;;;;10.03;9.03;;;;;;;33.84;nan;99861.63;5074100;28;20192;-75
2023/08/20 08:16:06;;;;;;;10.43;9.33;;;;;;;34.03;nan;99867.69;5070543;28;20295;-76
2023/08/20 08:18:31;;;;;;;9.90;8.90;;;;;;;34.33;nan;99864.66;5073192;28;20204;-76
2023/08/20 08:20:56;;;;;;;9.07;8.20;;;;;;;34.37;nan;99866.63;5070503;28;20196;-76
2023/08/20 08:23:22;;;;;;;10.33;7.73;;;;;;;34.43;nan;99864.84;5071743;28;20211;-76
2023/08/20 08:25:47;;;;;;;8.53;7.80;;;;;;;34.41;nan;99864.25;5071210;28;21802;-76
2023/08/20 08:28:12;;;;;;;10.20;8.40;;;;;;;34.32;nan;99861.13;5070390;28;20199;-76
2023/08/20 08:30:39;;;;;;;10.10;9.10;;;;;;;34.34;nan;99855.41;5070180;28;20469;-76
2023/08/20 08:33:05;;;;;;;9.43;8.50;;;;;;;34.34;nan;99867.13;5060681;28;20184;-76
2023/08/20 08:35:30;;;;;;;9.60;8.70;;;;;;;34.45;nan;99870.84;5070345;28;20492;-74
2023/08/20 08:37:57;;;;;;;9.27;8.30;;;;;;;34.51;nan;99867.16;5072718;28;20216;-74
2023/08/20 08:40:24;;;;;;;8.73;7.93;;;;;;;34.43;nan;99864.00;5067540;28;20204;-75
2023/08/20 08:42:50;;;;;;;8.33;7.50;;;;;;;34.17;nan;99866.31;5071719;28;20559;-74
2023/08/20 08:45:19;;;;;;;8.63;7.83;;;;;;;34.00;nan;99862.69;5071452;28;20523;-74
2023/08/20 08:47:45;;;;;;;8.47;7.67;;;;;;;33.85;nan;99866.81;5071215;28;20302;-74
2023/08/20 08:50:10;;;;;;;11.20;8.30;;;;;;;33.86;nan;99868.44;5068936;28;20675;-74
2023/08/20 08:52:39;;;;;;;8.37;7.57;;;;;;;33.88;nan;99865.50;5069660;28;20233;-76
2023/08/20 08:55:07;;;;;;;9.33;8.53;;;;;;;33.75;nan;99873.97;5069928;28;20193;-76
2023/08/20 08:57:33;;;;;;;9.90;8.50;;;;;;;33.71;nan;99876.34;5069324;28;21213;-76
2023/08/20 08:59:58;;;;;;;9.33;8.40;;;;;;;33.58;nan;99874.72;5068503;28;20460;-76
2023/08/20 09:02:24;;;;;;;7.87;7.07;;;;;;;33.40;nan;99872.97;5069263;28;20283;-77
2023/08/20 09:04:49;;;;;;;7.50;6.90;;;;;;;33.21;nan;99868.78;5073091;28;20227;-77
2023/08/20 09:07:15;;;;;;;8.23;7.50;;;;;;;32.94;nan;99868.41;5069013;28;20791;-76
2023/08/20 09:09:45;;;;;;;7.40;6.70;;;;;;;32.78;nan;99867.25;5069162;28;20512;-74
2023/08/20 09:12:18;;;;;;;7.77;7.00;;;;;;;32.90;nan;99861.81;5060546;28;20249;-76
2023/08/20 09:14:48;;;;;;;7.80;7.10;;;;;;;33.01;nan;99863.72;5073387;28;20519;-76
2023/08/20 09:17:13;;;;;;;9.13;8.07;;;;;;;32.95;nan;99861.94;5062737;28;20463;-77
2023/08/20 09:19:39;;;;;;;13.53;7.30;;;;;;;32.98;nan;99869.63;5069079;28;21000;-77
2023/08/20 09:22:05;;;;;;;9.00;7.63;;;;;;;32.91;nan;99864.28;5070321;28;20627;-76
2023/08/20 09:24:47;;;;;;;8.07;7.37;;;;;;;32.94;nan;99868.41;5070629;28;20500;-76
2023/08/20 09:27:13;;;;;;;9.80;7.47;;;;;;;33.08;nan;99859.00;5069914;28;20977;-76
2023/08/20 09:29:47;;;;;;;8.33;7.50;;;;;;;33.27;nan;99868.66;5069028;28;20561;-77
2023/08/20 09:32:17;;;;;;;9.73;8.20;;;;;;;33.39;nan;99863.16;5071725;28;20465;-76
2023/08/20 09:37:50;;;;;;;9.15;8.35;;;;;;;33.33;nan;99857.88;5740500;22;20543;-78
2023/08/20 09:40:15;;;;;;;9.10;6.80;;;;;;;33.35;nan;99866.59;5065230;28;20630;-77
2023/08/20 09:42:42;;;;;;;8.20;7.40;;;;;;;33.53;nan;99860.16;5085358;28;20207;-78
2023/08/20 09:45:09;;;;;;;8.40;7.53;;;;;;;33.61;nan;99855.19;5082948;28;20769;-78
2023/08/20 09:47:36;;;;;;;9.83;7.87;;;;;;;33.60;nan;99858.97;5084515;28;20498;-78
2023/08/20 09:50:02;;;;;;;7.43;6.73;;;;;;;33.59;nan;99854.59;5078890;28;21027;-79
2023/08/20 09:52:37;;;;;;;8.90;7.80;;;;;;;33.71;nan;99852.66;5072905;28;20454;-79
2023/08/20 09:55:21;;;;;;;9.30;8.40;;;;;;;33.80;nan;99853.09;5075466;28;20831;-79
2023/08/20 09:57:47;;;;;;;7.33;6.63;;;;;;;33.91;nan;99848.66;5068915;28;20555;-79
2023/08/20 10:00:14;;;;;;;9.40;7.13;;;;;;;33.94;nan;99842.69;5072662;28;20927;-79
2023/08/20 10:02:40;;;;;;;7.80;7.10;;;;;;;34.06;nan;99851.69;5072869;28;20584;-78
2023/08/20 10:05:07;;;;;;;8.80;8.00;;;;;;;34.18;nan;99850.78;5074961;28;20466;-79
2023/08/20 10:07:33;;;;;;;9.67;7.53;;;;;;;34.07;nan;99844.31;5071783;28;20497;-78
2023/08/20 10:10:04;;;;;;;8.00;7.20;;;;;;;34.04;nan;99848.34;5072179;28;20657;-79
2023/08/20 10:12:30;;;;;;;9.20;7.03;;;;;;;34.12;nan;99842.50;5070185;28;20450;-79
2023/08/20 10:14:57;;;;;;;8.33;6.67;;;;;;;34.06;nan;99845.41;5067583;28;20446;-80
2023/08/20 10:17:23;;;;;;;9.23;8.53;;;;;;;33.95;nan;99844.38;5070781;28;20480;-78
2023/08/20 10:19:52;;;;;;;8.37;7.30;;;;;;;34.04;nan;99845.59;5068746;28;20446;-78
2023/08/20 10:22:18;;;;;;;8.20;6.80;;;;;;;34.12;nan;99845.22;5067885;28;20458;-78
2023/08/20 10:24:49;;;;;;;8.17;7.47;;;;;;;34.18;nan;99845.31;5068216;28;20467;-79
2023/08/20 10:27:26;;;;;;;8.47;7.87;;;;;;;34.29;nan;99842.50;5076052;28;20714;-80
2023/08/20 10:29:53;;;;;;;8.20;6.67;;;;;;;34.40;nan;99838.03;5074300;28;20487;-78
2023/08/20 10:32:19;;;;;;;8.03;7.33;;;;;;;34.47;nan;99838.72;5073972;28;20465;-78
2023/08/20 10:34:52;;;;;;;11.90;8.10;;;;;;;34.55;nan;99843.75;5072396;28;20442;-78
2023/08/20 10:37:28;;;;;;;7.80;7.07;;;;;;;34.51;nan;99841.75;5071236;28;20602;-78
2023/08/20 10:39:55;;;;;;;9.10;6.77;;;;;;;34.49;nan;99836.56;5054643;28;20439;-80
2023/08/20 10:42:23;;;;;;;8.07;7.40;;;;;;;34.49;nan;99836.56;5050727;28;20554;-78
2023/08/20 10:45:11;;;;;;;7.80;7.10;;;;;;;34.51;nan;99842.59;5048814;28;20494;-78
2023/08/20 10:47:47;;;;;;;8.63;7.83;;;;;;;34.47;nan;99833.25;5053974;28;20508;-80
2023/08/20 10:50:18;;;;;;;7.80;7.20;;;;;;;34.39;nan;99830.13;5052113;28;21679;-80
2023/08/20 10:52:59;;;;;;;8.37;7.57;;;;;;;34.49;nan;99828.38;5049466;28;21049;-78
2023/08/20 10:55:24;;;;;;;8.60;7.70;;;;;;;34.53;nan;99825.97;5052169;28;20462;-78
2023/08/20 10:57:57;;;;;;;9.40;8.63;;;;;;;34.60;nan;99820.38;5052791;28;20962;-78
2023/08/20 11:00:23;;;;;;;10.70;9.00;;;;;;;34.66;nan;99814.75;5053325;28;20830;-81
2023/08/20 11:02:50;;;;;;;9.00;7.97;;;;;;;34.54;nan;99828.47;5047058;28;20451;-81
2023/08/20 11:05:22;;;;;;;9.07;8.03;;;;;;;34.36;nan;99820.53;5045174;28;20315;-80
2023/08/20 11:07:48;;;;;;;9.07;8.27;;;;;;;34.21;nan;99821.09;5048004;28;20483;-78
2023/08/20 11:10:15;;;;;;;9.10;8.40;;;;;;;34.10;nan;99817.38;5052470;28;20454;-78
2023/08/20 11:12:42;;;;;;;8.57;7.87;;;;;;;34.01;nan;99821.56;5045053;28;20520;-79
2023/08/20 11:15:12;;;;;;;8.17;7.30;;;;;;;34.03;nan;99813.16;5050611;28;20451;-79
2023/08/20 11:17:56;;;;;;;9.83;8.80;;;;;;;34.18;nan;99818.06;5050549;28;20458;-78
2023/08/20 11:20:22;;;;;;;8.20;7.43;;;;;;;34.27;nan;99816.56;5050648;28;20495;-79
2023/08/20 11:22:47;;;;;;;11.00;8.43;;;;;;;34.31;nan;99806.81;5044701;28;20822;-81
2023/08/20 11:25:13;;;;;;;9.67;8.77;;;;;;;34.39;nan;99806.41;5051413;28;20845;-78
2023/08/20 11:27:42;;;;;;;9.13;8.10;;;;;;;34.47;nan;99811.44;5049057;28;20709;-78
2023/08/20 11:30:11;;;;;;;9.13;8.20;;;;;;;34.40;nan;99808.03;5047578;28;20204;-81
2023/08/20 11:32:37;;;;;;;9.40;8.10;;;;;;;34.36;nan;99809.63;5046911;28;20520;-80
2023/08/20 11:35:04;;;;;;;9.60;7.67;;;;;;;34.36;nan;99804.19;5049983;28;20463;-79
2023/08/20 11:37:30;;;;;;;8.17;7.47;;;;;;;34.34;nan;99801.69;5049312;28;20470;-78
2023/08/20 11:39:55;;;;;;;8.60;7.77;;;;;;;34.33;nan;99800.03;5052263;28;20699;-77
2023/08/20 11:42:22;;;;;;;9.37;8.47;;;;;;;34.35;nan;99797.06;5046760;28;21183;-80
2023/08/20 11:44:47;;;;;;;8.20;7.50;;;;;;;34.30;nan;99792.38;5048179;28;20197;-79
2023/08/20 11:47:17;;;;;;;8.27;6.70;;;;;;;34.27;nan;99789.28;5049408;28;20517;-78
2023/08/20 11:49:43;;;;;;;9.63;7.03;;;;;;;34.28;nan;99793.69;5047742;28;20246;-79